createdAt,value
2022-08-25T00:01:10.300Z,2.97
2022-08-25T00:03:58.718Z,3.28
2022-08-25T00:06:46.741Z,3.60
2022-08-25T00:09:34.159Z,2.92
2022-08-25T00:12:20.322Z,3.72
2022-08-25T00:15:09.869Z,3.45
2022-08-25T00:17:55.755Z,3.47
2022-08-25T00:20:43.275Z,3.78
2022-08-25T00:23:35.372Z,3.60
2022-08-25T00:26:21.279Z,3.75
2022-08-25T00:29:08.152Z,3.50
2022-08-25T00:31:54.953Z,2.97
2022-08-25T00:34:41.253Z,2.92
2022-08-25T00:37:26.976Z,3.30
2022-08-25T00:40:12.849Z,3.72
2022-08-25T00:42:59.129Z,3.10
2022-08-25T00:45:44.741Z,3.63
2022-08-25T00:48:30.335Z,3.70
2022-08-25T00:51:25.870Z,3.85
2022-08-25T00:54:27.311Z,3.33
2022-08-25T00:57:16.857Z,3.20
2022-08-25T01:00:09.197Z,3.20
2022-08-25T01:02:56.826Z,3.42
2022-08-25T01:05:43.763Z,3.72
2022-08-25T01:08:32.340Z,2.90
2022-08-25T01:11:18.552Z,3.25
2022-08-25T01:14:07.095Z,3.40
2022-08-25T01:16:54.037Z,2.80
2022-08-25T01:19:40.032Z,3.47
2022-08-25T01:22:26.819Z,3.60
2022-08-25T01:25:26.854Z,3.47
2022-08-25T01:28:12.785Z,3.40
2022-08-25T01:30:58.727Z,2.70
2022-08-25T01:33:44.473Z,3.10
2022-08-25T01:36:31.160Z,3.20
2022-08-25T01:39:17.139Z,3.22
2022-08-25T01:42:19.027Z,3.50
2022-08-25T01:45:05.426Z,2.88
2022-08-25T01:47:51.015Z,2.88
2022-08-25T01:50:37.511Z,3.00
2022-08-25T01:53:29.783Z,3.72
2022-08-25T01:56:19.369Z,2.75
2022-08-25T01:59:05.422Z,3.08
2022-08-25T02:01:51.915Z,4.07
2022-08-25T02:04:45.836Z,2.90
2022-08-25T02:07:32.432Z,3.17
2022-08-25T02:10:18.316Z,3.20
2022-08-25T02:13:05.269Z,3.42
2022-08-25T02:15:56.788Z,3.40
2022-08-25T02:18:42.756Z,3.45
2022-08-25T02:21:28.650Z,3.60
2022-08-25T02:24:14.792Z,3.45
2022-08-25T02:27:00.295Z,3.22
2022-08-25T02:29:46.749Z,3.53
2022-08-25T02:32:32.336Z,3.33
2022-08-25T02:35:18.263Z,3.47
2022-08-25T02:38:05.141Z,3.83
2022-08-25T02:40:52.406Z,3.58
2022-08-25T02:43:38.098Z,3.50
2022-08-25T02:46:25.074Z,3.30
2022-08-25T02:49:11.216Z,3.72
2022-08-25T02:51:58.800Z,3.40
2022-08-25T02:54:44.678Z,3.42
2022-08-25T02:57:30.993Z,3.33
2022-08-25T03:00:17.438Z,4.03
2022-08-25T03:03:06.155Z,2.72
2022-08-25T03:05:52.173Z,3.22
2022-08-25T03:08:38.516Z,3.55
2022-08-25T03:11:25.592Z,3.50
2022-08-25T03:14:11.844Z,3.53
2022-08-25T03:16:57.698Z,3.53
2022-08-25T03:19:43.457Z,3.60
2022-08-25T03:22:29.589Z,3.55
2022-08-25T03:25:34.951Z,3.50
2022-08-25T03:28:21.211Z,3.65
2022-08-25T03:31:15.824Z,3.60
2022-08-25T03:34:02.085Z,3.63
2022-08-25T03:36:49.678Z,3.55
2022-08-25T03:39:35.462Z,3.78
2022-08-25T03:42:21.231Z,3.60
2022-08-25T03:45:08.208Z,3.85
2022-08-25T03:47:54.160Z,3.97
2022-08-25T03:50:50.629Z,3.30
2022-08-25T03:53:37.433Z,4.10
2022-08-25T03:56:23.442Z,3.78
2022-08-25T03:59:10.564Z,3.45
2022-08-25T04:01:56.492Z,3.60
2022-08-25T04:04:42.225Z,3.50
2022-08-25T04:07:28.415Z,3.50
2022-08-25T04:10:14.036Z,3.42
2022-08-25T04:13:00.096Z,3.80
2022-08-25T04:15:45.990Z,3.60
2022-08-25T04:18:31.926Z,3.08
2022-08-25T04:21:20.348Z,3.85
2022-08-25T04:24:08.610Z,3.40
2022-08-25T04:26:54.861Z,3.38
2022-08-25T04:29:40.794Z,3.83
2022-08-25T04:32:26.653Z,3.38
2022-08-25T04:35:12.609Z,3.97
2022-08-25T04:37:58.220Z,4.13
2022-08-25T04:40:44.042Z,3.50
2022-08-25T04:43:32.005Z,3.95
2022-08-25T04:46:23.848Z,4.15
2022-08-25T04:49:10.162Z,3.60
2022-08-25T04:51:57.557Z,4.47
2022-08-25T04:54:43.951Z,3.40
2022-08-25T04:57:29.771Z,3.42
2022-08-25T05:00:16.439Z,4.00
2022-08-25T05:03:03.931Z,3.90
2022-08-25T05:05:52.614Z,3.83
2022-08-25T05:08:38.304Z,3.95
2022-08-25T05:11:25.661Z,3.80
2022-08-25T05:14:15.058Z,3.50
2022-08-25T05:17:01.785Z,3.70
2022-08-25T05:19:47.587Z,4.20
2022-08-25T05:22:33.419Z,3.95
2022-08-25T05:25:19.333Z,4.35
2022-08-25T05:28:05.683Z,3.95
2022-08-25T05:30:51.636Z,4.43
2022-08-25T05:33:39.137Z,4.05
2022-08-25T05:36:26.846Z,3.90
2022-08-25T05:39:12.686Z,3.70
2022-08-25T05:41:58.218Z,4.03
2022-08-25T05:44:43.989Z,3.85
2022-08-25T05:47:29.835Z,3.75
2022-08-25T05:50:16.487Z,3.50
2022-08-25T05:53:02.752Z,3.80
2022-08-25T05:55:48.645Z,3.40
2022-08-25T05:58:35.492Z,3.58
2022-08-25T06:01:45.821Z,4.10
2022-08-25T06:04:32.488Z,4.35
2022-08-25T06:07:17.936Z,4.03
2022-08-25T06:10:06.794Z,4.38
2022-08-25T06:12:52.787Z,4.18
2022-08-25T06:15:38.727Z,4.63
2022-08-25T06:18:24.309Z,4.32
2022-08-25T06:21:13.331Z,4.15
2022-08-25T06:23:59.253Z,4.88
2022-08-25T06:26:45.696Z,4.50
2022-08-25T06:29:31.650Z,4.75
2022-08-25T06:32:17.251Z,4.60
2022-08-25T06:35:08.732Z,4.53
2022-08-25T06:37:54.790Z,4.93
2022-08-25T06:40:40.350Z,4.68
2022-08-25T06:43:25.973Z,4.43
2022-08-25T06:46:13.696Z,4.82
2022-08-25T06:49:00.886Z,4.70
2022-08-25T06:51:46.728Z,4.55
2022-08-25T06:54:32.575Z,4.70
2022-08-25T06:57:18.021Z,4.00
2022-08-25T07:00:08.012Z,4.25
2022-08-25T07:02:53.752Z,4.20
2022-08-25T07:05:43.932Z,4.00
2022-08-25T07:08:30.566Z,4.47
2022-08-25T07:11:17.448Z,4.10
2022-08-25T07:14:06.512Z,3.90
2022-08-25T07:16:52.582Z,4.17
2022-08-25T07:19:38.371Z,4.13
2022-08-25T07:22:26.685Z,4.03
2022-08-25T07:25:12.356Z,4.05
2022-08-25T07:27:59.075Z,3.92
2022-08-25T07:30:45.167Z,3.78
2022-08-25T07:33:37.664Z,4.03
2022-08-25T07:36:23.615Z,3.53
2022-08-25T07:39:11.179Z,3.70
2022-08-25T07:41:57.639Z,4.13
2022-08-25T07:44:43.485Z,3.50
2022-08-25T07:47:28.957Z,5.00
2022-08-25T07:50:15.160Z,3.70
2022-08-25T07:53:01.141Z,4.18
2022-08-25T07:55:47.203Z,3.92
2022-08-25T07:58:33.024Z,4.18
2022-08-25T08:01:23.927Z,4.38
2022-08-25T08:04:10.211Z,3.97
2022-08-25T08:06:57.818Z,3.75
2022-08-25T08:09:43.440Z,3.90
2022-08-25T08:12:29.120Z,3.78
2022-08-25T08:15:15.674Z,3.70
2022-08-25T08:18:01.533Z,4.40
2022-08-25T08:20:49.352Z,4.70
2022-08-25T08:23:35.206Z,4.80
2022-08-25T08:26:22.521Z,4.25
2022-08-25T08:29:23.232Z,4.43
2022-08-25T08:32:13.441Z,3.88
2022-08-25T08:34:59.151Z,3.50
2022-08-25T08:37:46.093Z,4.20
2022-08-25T08:40:38.098Z,3.70
2022-08-25T08:43:24.964Z,3.45
2022-08-25T08:46:11.549Z,4.30
2022-08-25T08:49:11.745Z,3.60
2022-08-25T08:52:01.926Z,3.85
2022-08-25T08:54:56.834Z,3.80
2022-08-25T09:00:40.504Z,3.38
2022-08-25T09:03:26.438Z,3.83
2022-08-25T09:06:28.108Z,3.55
2022-08-25T09:09:30.102Z,3.72
2022-08-25T09:12:47.474Z,3.58
2022-08-25T09:16:20.426Z,3.70
2022-08-25T09:19:37.407Z,3.72
2022-08-25T09:22:52.093Z,3.40
2022-08-25T09:25:59.973Z,3.30
2022-08-25T09:28:55.207Z,3.60
2022-08-25T09:31:42.432Z,3.50
2022-08-25T09:34:33.801Z,3.33
2022-08-25T09:37:20.097Z,3.55
2022-08-25T09:40:06.934Z,3.88
2022-08-25T09:42:57.923Z,3.80
2022-08-25T09:45:57.674Z,3.30
2022-08-25T09:48:56.073Z,3.60
2022-08-25T09:51:44.295Z,3.57
2022-08-25T09:54:43.865Z,3.65
2022-08-25T09:57:44.197Z,3.90
2022-08-25T10:03:22.528Z,3.75
2022-08-25T10:06:14.891Z,3.55
2022-08-25T10:09:22.167Z,3.45
2022-08-25T10:12:31.592Z,3.40
2022-08-25T10:18:22.135Z,3.15
2022-08-25T10:21:17.561Z,2.90
2022-08-25T10:24:06.080Z,3.67
2022-08-25T10:27:14.800Z,3.13
2022-08-25T10:30:23.340Z,3.15
2022-08-25T10:33:20.776Z,3.08
2022-08-25T10:36:31.268Z,3.17
2022-08-25T10:39:36.710Z,3.08
2022-08-25T10:42:43.274Z,2.53
2022-08-25T10:45:44.198Z,2.72
2022-08-25T10:49:05.316Z,2.47
2022-08-25T10:52:07.376Z,2.30
2022-08-25T10:55:06.757Z,2.47
2022-08-25T10:58:14.710Z,2.72
2022-08-25T11:01:44.086Z,2.30
2022-08-25T11:04:38.945Z,2.30
2022-08-25T11:07:44.500Z,2.30
2022-08-25T11:10:44.469Z,2.17
2022-08-25T11:13:53.217Z,2.50
2022-08-25T11:16:41.194Z,2.70
2022-08-25T11:19:41.881Z,2.55
2022-08-25T11:22:39.777Z,2.28
2022-08-25T11:25:31.491Z,2.50
2022-08-25T11:28:39.323Z,2.20
2022-08-25T11:31:28.006Z,1.98
2022-08-25T11:34:15.355Z,2.50
2022-08-25T11:37:45.959Z,2.30
2022-08-25T11:40:38.855Z,2.50
2022-08-25T11:43:26.159Z,2.00
2022-08-25T11:46:31.293Z,2.25
2022-08-25T11:49:29.111Z,2.00
2022-08-25T11:52:34.739Z,2.08
2022-08-25T11:55:39.752Z,2.05
2022-08-25T11:58:30.695Z,1.88
2022-08-25T12:01:45.326Z,2.00
2022-08-25T12:04:34.115Z,1.65
2022-08-25T12:07:49.962Z,1.60
2022-08-25T12:10:59.095Z,1.90
2022-08-25T12:13:51.932Z,1.75
2022-08-25T12:16:43.654Z,1.75
2022-08-25T12:19:38.017Z,1.50
2022-08-25T12:22:24.041Z,1.75
2022-08-25T12:25:39.163Z,1.73
2022-08-25T12:28:39.831Z,1.50
2022-08-25T12:31:59.135Z,1.65
2022-08-25T12:34:59.714Z,1.60
2022-08-25T12:38:00.641Z,1.58
2022-08-25T12:40:46.195Z,1.30
2022-08-25T12:43:44.414Z,1.60
2022-08-25T12:46:30.236Z,1.48
2022-08-25T12:49:36.072Z,1.40
2022-08-25T12:52:27.269Z,1.45
2022-08-25T12:55:14.497Z,1.60
2022-08-25T12:58:02.407Z,1.55
2022-08-25T13:01:24.565Z,1.63
2022-08-25T13:04:38.550Z,1.73
2022-08-25T13:07:47.023Z,1.67
2022-08-25T13:10:46.574Z,1.65
2022-08-25T13:13:49.082Z,1.33
2022-08-25T13:16:35.145Z,1.83
2022-08-25T13:19:22.436Z,1.73
2022-08-25T13:22:16.365Z,1.80
2022-08-25T13:25:03.937Z,1.92
2022-08-25T13:27:55.463Z,1.63
2022-08-25T13:30:41.216Z,1.70
2022-08-25T13:33:27.271Z,2.10
2022-08-25T13:36:35.590Z,1.80
2022-08-25T13:39:45.241Z,2.05
2022-08-25T13:45:28.814Z,1.90
2022-08-25T13:48:35.067Z,1.92
2022-08-25T13:51:24.506Z,1.90
2022-08-25T13:54:28.474Z,1.85
2022-08-25T13:57:25.152Z,1.77
2022-08-25T14:00:12.008Z,2.00
2022-08-25T14:02:58.871Z,2.00
2022-08-25T14:05:45.635Z,2.20
2022-08-25T14:08:36.074Z,2.17
2022-08-25T14:11:47.038Z,2.13
2022-08-25T14:14:35.242Z,2.00
2022-08-25T14:17:38.269Z,1.90
2022-08-25T14:20:29.207Z,2.72
2022-08-25T14:23:19.520Z,1.88
2022-08-25T14:26:06.421Z,1.98
2022-08-25T14:28:52.829Z,2.22
2022-08-25T14:31:43.425Z,2.30
2022-08-25T14:34:37.086Z,1.92
2022-08-25T14:37:25.360Z,2.13
2022-08-25T14:40:19.783Z,2.00
2022-08-25T14:43:09.549Z,2.00
2022-08-25T14:45:55.822Z,2.00
2022-08-25T14:48:45.358Z,2.10
2022-08-25T14:51:33.478Z,2.00
2022-08-25T14:54:26.866Z,2.20
2022-08-25T14:57:12.358Z,2.08
2022-08-25T14:59:59.079Z,1.95
2022-08-25T15:02:49.263Z,1.95
2022-08-25T15:05:34.892Z,1.98
2022-08-25T15:08:39.103Z,2.10
2022-08-25T15:11:25.108Z,1.90
2022-08-25T15:14:15.751Z,2.00
2022-08-25T15:17:03.722Z,2.00
2022-08-25T15:19:49.058Z,1.55
2022-08-25T15:22:34.673Z,1.73
2022-08-25T15:25:22.734Z,1.58
2022-08-25T15:28:10.253Z,1.52
2022-08-25T15:30:55.969Z,1.77
2022-08-25T15:33:42.145Z,2.03
2022-08-25T15:36:28.059Z,1.67
2022-08-25T15:39:14.417Z,1.58
2022-08-25T15:42:00.115Z,1.55
2022-08-25T15:44:53.550Z,1.60
2022-08-25T15:47:39.351Z,1.80
2022-08-25T15:50:26.977Z,1.55
2022-08-25T15:53:12.424Z,1.60
2022-08-25T15:56:00.572Z,1.70
2022-08-25T15:58:51.258Z,1.70
2022-08-25T16:01:37.215Z,1.60
2022-08-25T16:04:28.052Z,1.65
2022-08-25T16:07:13.549Z,1.60
2022-08-25T16:09:59.552Z,1.48
2022-08-25T16:12:45.509Z,1.50
2022-08-25T16:15:31.820Z,1.63
2022-08-25T16:18:18.102Z,1.70
2022-08-25T16:21:03.912Z,1.77
2022-08-25T16:24:02.588Z,1.92
2022-08-25T16:26:52.000Z,1.95
2022-08-25T16:29:39.529Z,1.98
2022-08-25T16:32:25.744Z,2.05
2022-08-25T16:35:13.112Z,1.88
2022-08-25T16:37:58.810Z,1.83
2022-08-25T16:40:46.640Z,1.92
2022-08-25T16:43:32.484Z,1.83
2022-08-25T16:46:20.993Z,1.90
2022-08-25T16:49:07.009Z,2.20
2022-08-25T16:51:57.288Z,2.22
2022-08-25T16:55:01.602Z,2.13
2022-08-25T16:57:51.735Z,1.60
2022-08-25T17:00:38.882Z,1.88
2022-08-25T17:03:25.920Z,1.87
2022-08-25T17:06:14.169Z,2.30
2022-08-25T17:09:01.215Z,1.80
2022-08-25T17:11:48.330Z,2.30
2022-08-25T17:14:33.973Z,2.00
2022-08-25T17:17:20.130Z,2.53
2022-08-25T17:20:06.746Z,2.05
2022-08-25T17:22:52.561Z,2.85
2022-08-25T17:25:41.256Z,4.47
2022-08-25T17:28:29.400Z,3.65
2022-08-25T17:31:16.549Z,3.65
2022-08-25T17:34:02.335Z,4.78
2022-08-25T17:36:48.938Z,5.38
2022-08-25T17:39:34.425Z,7.75
2022-08-25T17:42:20.929Z,4.82
2022-08-25T17:45:06.816Z,9.52
2022-08-25T17:47:52.962Z,60.63
2022-08-25T17:50:40.679Z,44.60
2022-08-25T17:53:26.946Z,15.52
2022-08-25T17:56:15.995Z,10.18
2022-08-25T17:59:02.113Z,5.28
2022-08-25T18:01:49.489Z,2.97
2022-08-25T18:04:38.702Z,2.50
2022-08-25T18:07:25.668Z,4.07
2022-08-25T18:10:12.296Z,2.20
2022-08-25T18:12:58.315Z,2.20
2022-08-25T18:15:46.289Z,2.30
2022-08-25T18:18:32.440Z,2.15
2022-08-25T18:21:20.494Z,1.98
2022-08-25T18:24:06.992Z,2.00
2022-08-25T18:26:52.676Z,1.80
2022-08-25T18:29:38.373Z,1.85
2022-08-25T18:32:26.893Z,1.80
2022-08-25T18:35:14.984Z,1.73
2022-08-25T18:38:19.304Z,1.80
2022-08-25T18:41:08.256Z,1.77
2022-08-25T18:43:54.158Z,2.20
2022-08-25T18:46:42.193Z,1.92
2022-08-25T18:49:28.718Z,1.90
2022-08-25T18:52:14.853Z,1.90
2022-08-25T18:55:01.065Z,1.60
2022-08-25T18:57:47.846Z,1.83
2022-08-25T19:00:36.933Z,1.70
2022-08-25T19:03:23.544Z,1.83
2022-08-25T19:06:09.359Z,1.80
2022-08-25T19:08:55.325Z,1.80
2022-08-25T19:11:41.042Z,1.58
2022-08-25T19:14:27.415Z,1.90
2022-08-25T19:17:13.581Z,1.80
2022-08-25T19:19:59.291Z,2.00
2022-08-25T19:22:45.136Z,1.90
2022-08-25T19:25:33.211Z,1.95
2022-08-25T19:28:21.682Z,2.47
2022-08-25T19:31:08.286Z,2.08
2022-08-25T19:33:56.315Z,2.15
2022-08-25T19:36:45.514Z,2.60
2022-08-25T19:39:35.310Z,2.08
2022-08-25T19:42:37.160Z,2.08
2022-08-25T19:45:23.877Z,1.92
2022-08-25T19:48:10.757Z,2.10
2022-08-25T19:50:56.762Z,1.90
2022-08-25T19:53:43.235Z,2.13
2022-08-25T19:56:29.048Z,2.05
2022-08-25T19:59:16.548Z,2.22
2022-08-25T20:02:04.799Z,2.08
2022-08-25T20:04:56.885Z,1.85
2022-08-25T20:07:43.620Z,2.15
2022-08-25T20:10:31.799Z,2.15
2022-08-25T20:13:21.528Z,2.40
2022-08-25T20:16:09.461Z,1.80
2022-08-25T20:18:55.405Z,2.10
2022-08-25T20:21:43.220Z,2.30
2022-08-25T20:24:47.705Z,2.25
2022-08-25T20:27:36.340Z,2.50
2022-08-25T20:30:25.431Z,1.92
2022-08-25T20:35:57.572Z,2.17
2022-08-25T20:38:44.893Z,2.15
2022-08-25T20:41:30.750Z,2.20
2022-08-25T20:44:17.655Z,2.47
2022-08-25T20:47:07.440Z,2.10
2022-08-25T20:50:00.381Z,2.50
2022-08-25T20:52:49.102Z,2.20
2022-08-25T20:55:42.315Z,2.00
2022-08-25T20:58:28.630Z,2.50
2022-08-25T21:01:37.523Z,2.22
2022-08-25T21:04:25.868Z,2.30
2022-08-25T21:07:11.797Z,2.05
2022-08-25T21:09:57.805Z,2.05
2022-08-25T21:12:45.157Z,2.45
2022-08-25T21:15:30.864Z,2.45
2022-08-25T21:18:16.472Z,2.78
2022-08-25T21:21:15.474Z,2.53
2022-08-25T21:24:04.334Z,2.60
2022-08-25T21:26:55.896Z,2.60
2022-08-25T21:29:44.712Z,2.90
2022-08-25T21:32:40.726Z,2.35
2022-08-25T21:35:40.776Z,2.83
2022-08-25T21:41:25.904Z,2.83
2022-08-25T21:44:13.813Z,2.85
2022-08-25T21:47:01.314Z,2.97
2022-08-25T21:49:47.132Z,2.50
2022-08-25T21:52:33.940Z,2.88
2022-08-25T21:55:20.095Z,2.60
2022-08-25T21:58:08.229Z,2.85
2022-08-25T22:00:54.660Z,2.72
2022-08-25T22:03:42.417Z,2.75
2022-08-25T22:06:33.853Z,2.70
2022-08-25T22:09:19.816Z,2.42
2022-08-25T22:12:05.879Z,2.92
2022-08-25T22:14:51.768Z,3.20
2022-08-25T22:17:37.894Z,3.10
2022-08-25T22:20:25.228Z,3.08
2022-08-25T22:23:13.451Z,3.05
2022-08-25T22:26:06.848Z,3.05
2022-08-25T22:28:52.847Z,3.08
2022-08-25T22:31:38.936Z,2.70
2022-08-25T22:34:30.248Z,2.78
2022-08-25T22:37:18.026Z,2.92
2022-08-25T22:40:04.768Z,3.13
2022-08-25T22:42:50.903Z,3.20
2022-08-25T22:45:36.895Z,3.08
2022-08-25T22:48:22.862Z,3.10
2022-08-25T22:51:12.576Z,2.95
2022-08-25T22:54:02.180Z,3.25
2022-08-25T22:56:50.493Z,3.15
2022-08-25T22:59:36.774Z,3.00
2022-08-25T23:02:23.711Z,3.10
2022-08-25T23:05:11.365Z,3.20
2022-08-25T23:07:57.151Z,3.15
2022-08-25T23:10:54.925Z,3.17
2022-08-25T23:13:42.013Z,3.60
2022-08-25T23:16:28.748Z,2.97
2022-08-25T23:19:14.809Z,3.63
2022-08-25T23:22:10.575Z,3.30
2022-08-25T23:24:56.811Z,3.50
2022-08-25T23:27:42.728Z,3.55
2022-08-25T23:30:28.671Z,3.67
2022-08-25T23:33:18.819Z,4.00
2022-08-25T23:36:12.911Z,3.35
2022-08-25T23:38:58.882Z,3.33
2022-08-25T23:41:44.633Z,3.83
2022-08-25T23:44:30.553Z,3.60
2022-08-25T23:47:17.752Z,3.97
2022-08-25T23:50:03.947Z,3.60
2022-08-25T23:52:49.397Z,3.47
2022-08-25T23:55:36.475Z,3.65
2022-08-25T23:58:23.474Z,3.63
